This is the latest recevied weather packets stored in our database for station/object OE-11272. If no packets are shown the sender has not sent any weather packets the latest 10 day(s).
| Time | Temp. | Humidity | Pressure | Rain* | Wind** | Luminosity | Snow |
|---|---|---|---|---|---|---|---|
| 1787694925 | 17.22° C | 96% | 1016.3 hPa | 0 mm | - | 0 W/m² | - |
| 1787694099 | 17.22° C | 96% | 1016 hPa | 0 mm | - | 0 W/m² | - |
| 1787693726 | 17.78° C | 95% | 1015.8 hPa | 0 mm | - | 0 W/m² | - |
| 1787693125 | 17.78° C | 96% | 1015.6 hPa | 0 mm | - | 0 W/m² | - |
| 1787692299 | 17.78° C | 96% | 1015.5 hPa | 0 mm | - | 0 W/m² | - |
| 1787691925 | 17.78° C | 95% | 1015.2 hPa | 0 mm | - | 0 W/m² | - |
| 1787691326 | 17.78° C | 94% | 1015.1 hPa | 0 mm | - | 0 W/m² | - |
| 1787690499 | 17.78° C | 93% | 1015.1 hPa | 0 mm | - | 0 W/m² | - |
| 1787690126 | 17.78° C | 93% | 1015 hPa | 0 mm | - | 0 W/m² | - |
| 1787689525 | 17.78° C | 93% | 1015 hPa | 0 mm | - | 0 W/m² | - |
| 1787688699 | 17.78° C | 93% | 1015 hPa | 0 mm | - | 0 W/m² | - |
| 1787688325 | 18.33° C | 92% | 1014.6 hPa | 0 mm | - | 0 W/m² | - |
| 1787687726 | 18.33° C | 90% | 1014.6 hPa | 0 mm | - | 0 W/m² | - |
| 1787686899 | 18.33° C | 90% | 1014.3 hPa | 0 mm | - | 0 W/m² | - |
| 1787686525 | 18.33° C | 90% | 1014.1 hPa | 0 mm | - | 0 W/m² | - |
| 1787685926 | 18.33° C | 89% | 1014.1 hPa | 0 mm | - | 0 W/m² | - |
| 1787685099 | 18.89° C | 88% | 1013.8 hPa | 0 mm | - | 0 W/m² | - |
| 1787684726 | 18.33° C | 90% | 1013.8 hPa | 0 mm | - | 0 W/m² | - |
| 1787684126 | 18.89° C | 89% | 1013.8 hPa | 0 mm | - | 0 W/m² | - |
| 1787683299 | 18.89° C | 90% | 1013.7 hPa | 0 mm | - | 0 W/m² | - |
| 1787682326 | 18.89° C | 90% | 1013.2 hPa | 0 mm | - | 0 W/m² | - |
| 1787681499 | 19.44° C | 90% | 1013.2 hPa | 0 mm | - | 0 W/m² | - |
| 1787681126 | 19.44° C | 88% | 1013 hPa | 0 mm | - | 6 W/m² | - |
| 1787680526 | 19.44° C | 89% | 1012.9 hPa | 0 mm | - | 12 W/m² | - |
| 1787679697 | 20° C | 86% | 1012.7 hPa | 0 mm | - | 31 W/m² | - |
* Rain latest hour (hover to see other rain measurements)
** Current wind speed in m/s (hover to see current wind gust speed)